Wildwood, NJ

12:12 PM EDT on March 27, 2015 (GMT -0400)
Cape May County | | Change Station
CLOSE
Current Station
Airport
Location: Wildwood,
Elevation: 23 ft
Nearby Weather Stations

Elev 23 ft 39.01 °N, 74.91 °W | Updated 17 minutes ago

Mostly Cloudy
Mostly Cloudy
43 °F
Feels Like 37 °F
N
10
Wind Variable Wind from NNW

Today
High -- | Low -- °F
--% Chance of Precip.
Yesterday
High -- | Low -- °F
Precip. -- in
6:52 AM 7:17 PM
First Quarter, 53% visible
Pressure 29.77 in
Visibility 10.0 miles
Clouds Few 3900 ft
Scattered Clouds 4800 ft
Overcast 6500 ft
Windchill 37 °F
Dew Point 34 °F
Humidity 70%
Rainfall 0.00 in
Snow Depth Not available.
UV 2 out of 12
Pollen 5.10 out of 12
Air Quality Not available.
Flu Activity Not available.
METAR KWWD 271555Z AUTO 34009KT 10SM FEW039 SCT048 OVC065 06/01 A2977 RMK AO1

More Conditions Fewer Conditions

Pressure 29.77 in
Visibility 10.0 miles
Clouds Few 3900 ft
Scattered Clouds 4800 ft
Overcast 6500 ft
Windchill 37 °F
Dew Point 34 °F
Humidity 70%
Rainfall 0.00 in
Snow Depth Not available.
UV 2 out of 12
Pollen 5.10 out of 12
Air Quality Not available.
Flu Activity Not available.
METAR KWWD 271555Z AUTO 34009KT 10SM FEW039 SCT048 OVC065 06/01 A2977 RMK AO1

More Conditions Fewer Conditions

10-Day Weather Forecast

Almanac

Astronomy

Mar. 27, 2015 Rise Set
Actual Time
Civil Twilight
Nautical Twilight
Astronomical Twilight
Moon
Length of Visible Light
Length of Day
Tomorrow will be .
, % of the Moon is Illuminated

Today's Extremes

State Highs State Lows

Community

WunderPhotos

Upload Photos

1,808,766 photos uploaded!

WunderBlogs® & News

Nearby

Air Quality

  Air Quality AQ Index Pollutant
Not available.

Snow Depth

Station Depth Elevation

Earthquake Activity

City Distance Mag. Time & Date
Minimum magnitude displayed is 2.5.

Coastal Water Temperatures

Place Temperature

Stations

Nearby Weather Stations

Station Location Temp. Windchill Dew Point Humidity Wind Precip. Elev Updated Type